sensor_id;sensor_type;location;lat;lon;timestamp;P1;durP1;ratioP1;P2;durP2;ratioP2
68178;SDS011;69812;42.632;23.440;2023-06-22T00:01:50;24.95;;;15.15;;
68178;SDS011;69812;42.632;23.440;2023-06-22T00:04:15;25.75;;;16.25;;
68178;SDS011;69812;42.632;23.440;2023-06-22T00:06:43;22.80;;;15.20;;
68178;SDS011;69812;42.632;23.440;2023-06-22T00:09:09;29.30;;;16.67;;
68178;SDS011;69812;42.632;23.440;2023-06-22T00:11:35;26.10;;;16.33;;
68178;SDS011;69812;42.632;23.440;2023-06-22T00:14:01;25.83;;;16.73;;
68178;SDS011;69812;42.632;23.440;2023-06-22T00:16:27;29.95;;;18.23;;
68178;SDS011;69812;42.632;23.440;2023-06-22T00:18:53;24.42;;;15.75;;
68178;SDS011;69812;42.632;23.440;2023-06-22T00:21:18;27.08;;;18.27;;
68178;SDS011;69812;42.632;23.440;2023-06-22T00:23:45;26.20;;;16.52;;
68178;SDS011;69812;42.632;23.440;2023-06-22T00:26:11;26.60;;;17.90;;
68178;SDS011;69812;42.632;23.440;2023-06-22T00:28:36;26.58;;;16.17;;
68178;SDS011;69812;42.632;23.440;2023-06-22T00:31:01;25.27;;;17.10;;
68178;SDS011;69812;42.632;23.440;2023-06-22T00:33:27;26.45;;;16.45;;
68178;SDS011;69812;42.632;23.440;2023-06-22T00:35:53;26.73;;;17.58;;
68178;SDS011;69812;42.632;23.440;2023-06-22T00:38:21;30.08;;;18.73;;
68178;SDS011;69812;42.632;23.440;2023-06-22T00:40:46;27.65;;;16.88;;
68178;SDS011;69812;42.632;23.440;2023-06-22T00:43:12;30.23;;;18.13;;
68178;SDS011;69812;42.632;23.440;2023-06-22T00:45:37;25.73;;;16.73;;
68178;SDS011;69812;42.632;23.440;2023-06-22T00:48:05;27.60;;;17.63;;
68178;SDS011;69812;42.632;23.440;2023-06-22T00:50:33;27.60;;;17.92;;
68178;SDS011;69812;42.632;23.440;2023-06-22T00:53:00;24.00;;;14.45;;
68178;SDS011;69812;42.632;23.440;2023-06-22T00:55:33;25.58;;;16.48;;
68178;SDS011;69812;42.632;23.440;2023-06-22T00:58:04;26.73;;;16.90;;
68178;SDS011;69812;42.632;23.440;2023-06-22T01:00:35;24.60;;;16.95;;
68178;SDS011;69812;42.632;23.440;2023-06-22T01:03:01;26.25;;;16.23;;
68178;SDS011;69812;42.632;23.440;2023-06-22T01:05:27;23.40;;;14.77;;
68178;SDS011;69812;42.632;23.440;2023-06-22T01:13:06;28.88;;;18.48;;
68178;SDS011;69812;42.632;23.440;2023-06-22T01:15:40;29.88;;;16.83;;
68178;SDS011;69812;42.632;23.440;2023-06-22T01:18:14;27.83;;;17.42;;
68178;SDS011;69812;42.632;23.440;2023-06-22T01:20:43;27.90;;;17.10;;
68178;SDS011;69812;42.632;23.440;2023-06-22T01:29:01;25.40;;;16.73;;
68178;SDS011;69812;42.632;23.440;2023-06-22T01:31:33;25.67;;;16.52;;
68178;SDS011;69812;42.632;23.440;2023-06-22T01:34:01;30.15;;;16.58;;
68178;SDS011;69812;42.632;23.440;2023-06-22T01:36:30;24.60;;;16.75;;
68178;SDS011;69812;42.632;23.440;2023-06-22T01:38:57;25.67;;;16.52;;
68178;SDS011;69812;42.632;23.440;2023-06-22T01:41:27;25.88;;;15.63;;
68178;SDS011;69812;42.632;23.440;2023-06-22T01:43:56;24.58;;;15.82;;
68178;SDS011;69812;42.632;23.440;2023-06-22T01:46:22;27.10;;;17.58;;
68178;SDS011;69812;42.632;23.440;2023-06-22T01:48:51;24.25;;;15.95;;
68178;SDS011;69812;42.632;23.440;2023-06-22T01:51:19;25.42;;;16.30;;
68178;SDS011;69812;42.632;23.440;2023-06-22T01:53:45;30.00;;;18.88;;
68178;SDS011;69812;42.632;23.440;2023-06-22T01:56:12;32.28;;;19.85;;
68178;SDS011;69812;42.632;23.440;2023-06-22T02:01:40;27.17;;;15.90;;
68178;SDS011;69812;42.632;23.440;2023-06-22T02:04:12;28.83;;;16.20;;
68178;SDS011;69812;42.632;23.440;2023-06-22T02:06:44;24.27;;;15.68;;
68178;SDS011;69812;42.632;23.440;2023-06-22T02:09:16;22.83;;;15.13;;
68178;SDS011;69812;42.632;23.440;2023-06-22T02:11:43;20.45;;;14.75;;
68178;SDS011;69812;42.632;23.440;2023-06-22T02:14:11;20.63;;;13.30;;
68178;SDS011;69812;42.632;23.440;2023-06-22T02:16:40;24.17;;;15.23;;
68178;SDS011;69812;42.632;23.440;2023-06-22T02:19:09;24.15;;;15.20;;
68178;SDS011;69812;42.632;23.440;2023-06-22T02:21:35;26.85;;;15.75;;
68178;SDS011;69812;42.632;23.440;2023-06-22T02:24:00;22.67;;;14.85;;
68178;SDS011;69812;42.632;23.440;2023-06-22T02:26:28;22.23;;;14.88;;
68178;SDS011;69812;42.632;23.440;2023-06-22T02:28:54;51.83;;;28.65;;
68178;SDS011;69812;42.632;23.440;2023-06-22T02:31:20;42.42;;;24.27;;
68178;SDS011;69812;42.632;23.440;2023-06-22T02:33:45;32.95;;;20.55;;
68178;SDS011;69812;42.632;23.440;2023-06-22T02:36:11;30.15;;;18.75;;
68178;SDS011;69812;42.632;23.440;2023-06-22T02:38:38;30.75;;;19.33;;
68178;SDS011;69812;42.632;23.440;2023-06-22T02:41:04;29.00;;;17.35;;
68178;SDS011;69812;42.632;23.440;2023-06-22T02:43:29;31.15;;;18.73;;
68178;SDS011;69812;42.632;23.440;2023-06-22T02:45:55;28.95;;;18.05;;
68178;SDS011;69812;42.632;23.440;2023-06-22T02:48:20;25.88;;;16.02;;
68178;SDS011;69812;42.632;23.440;2023-06-22T02:50:45;24.55;;;14.30;;
68178;SDS011;69812;42.632;23.440;2023-06-22T02:53:11;28.00;;;18.45;;
68178;SDS011;69812;42.632;23.440;2023-06-22T02:55:38;28.38;;;17.63;;
68178;SDS011;69812;42.632;23.440;2023-06-22T02:58:04;26.48;;;15.68;;
68178;SDS011;69812;42.632;23.440;2023-06-22T03:00:32;25.60;;;15.77;;
68178;SDS011;69812;42.632;23.440;2023-06-22T03:02:57;27.85;;;15.65;;
68178;SDS011;69812;42.632;23.440;2023-06-22T03:05:23;23.75;;;15.30;;
68178;SDS011;69812;42.632;23.440;2023-06-22T03:07:49;22.90;;;15.02;;
68178;SDS011;69812;42.632;23.440;2023-06-22T03:10:15;22.75;;;14.85;;
68178;SDS011;69812;42.632;23.440;2023-06-22T03:12:43;22.85;;;14.40;;
68178;SDS011;69812;42.632;23.440;2023-06-22T03:15:09;20.63;;;13.75;;
68178;SDS011;69812;42.632;23.440;2023-06-22T03:17:36;18.30;;;13.45;;
68178;SDS011;69812;42.632;23.440;2023-06-22T03:20:03;19.63;;;12.38;;
68178;SDS011;69812;42.632;23.440;2023-06-22T03:22:39;20.13;;;13.38;;
68178;SDS011;69812;42.632;23.440;2023-06-22T03:27:37;21.02;;;13.68;;
68178;SDS011;69812;42.632;23.440;2023-06-22T03:30:03;22.05;;;12.93;;
68178;SDS011;69812;42.632;23.440;2023-06-22T03:32:29;18.92;;;13.60;;
68178;SDS011;69812;42.632;23.440;2023-06-22T03:34:54;17.92;;;12.38;;
68178;SDS011;69812;42.632;23.440;2023-06-22T03:37:23;19.90;;;12.55;;
68178;SDS011;69812;42.632;23.440;2023-06-22T03:39:52;17.50;;;12.32;;
68178;SDS011;69812;42.632;23.440;2023-06-22T03:42:18;18.15;;;12.57;;
68178;SDS011;69812;42.632;23.440;2023-06-22T03:44:43;18.52;;;11.95;;
68178;SDS011;69812;42.632;23.440;2023-06-22T03:47:09;16.95;;;11.82;;
68178;SDS011;69812;42.632;23.440;2023-06-22T03:49:34;16.60;;;12.27;;
68178;SDS011;69812;42.632;23.440;2023-06-22T03:52:01;18.80;;;12.00;;
68178;SDS011;69812;42.632;23.440;2023-06-22T03:54:27;17.55;;;12.35;;
68178;SDS011;69812;42.632;23.440;2023-06-22T03:59:18;14.93;;;11.07;;
68178;SDS011;69812;42.632;23.440;2023-06-22T04:01:44;16.52;;;10.88;;
68178;SDS011;69812;42.632;23.440;2023-06-22T04:04:09;13.32;;;11.10;;
68178;SDS011;69812;42.632;23.440;2023-06-22T04:06:35;12.85;;;9.90;;
68178;SDS011;69812;42.632;23.440;2023-06-22T04:09:00;11.75;;;10.10;;
68178;SDS011;69812;42.632;23.440;2023-06-22T04:11:26;12.73;;;9.82;;
68178;SDS011;69812;42.632;23.440;2023-06-22T04:13:51;14.70;;;9.75;;
68178;SDS011;69812;42.632;23.440;2023-06-22T04:16:17;12.07;;;9.20;;
68178;SDS011;69812;42.632;23.440;2023-06-22T04:18:44;13.68;;;9.65;;
68178;SDS011;69812;42.632;23.440;2023-06-22T04:21:10;12.77;;;9.15;;
68178;SDS011;69812;42.632;23.440;2023-06-22T04:23:35;11.82;;;9.60;;
68178;SDS011;69812;42.632;23.440;2023-06-22T04:26:03;12.15;;;10.23;;
68178;SDS011;69812;42.632;23.440;2023-06-22T04:28:28;12.50;;;10.82;;
68178;SDS011;69812;42.632;23.440;2023-06-22T04:30:54;13.10;;;11.02;;
68178;SDS011;69812;42.632;23.440;2023-06-22T04:33:23;14.77;;;11.25;;
68178;SDS011;69812;42.632;23.440;2023-06-22T04:35:48;13.32;;;11.73;;
68178;SDS011;69812;42.632;23.440;2023-06-22T04:38:13;15.13;;;12.23;;
68178;SDS011;69812;42.632;23.440;2023-06-22T04:40:39;14.07;;;12.25;;
68178;SDS011;69812;42.632;23.440;2023-06-22T04:43:17;15.43;;;13.15;;
68178;SDS011;69812;42.632;23.440;2023-06-22T04:45:49;14.20;;;12.68;;
68178;SDS011;69812;42.632;23.440;2023-06-22T04:48:17;14.60;;;13.15;;
68178;SDS011;69812;42.632;23.440;2023-06-22T04:50:42;14.52;;;12.45;;
68178;SDS011;69812;42.632;23.440;2023-06-22T04:53:09;15.02;;;12.13;;
68178;SDS011;69812;42.632;23.440;2023-06-22T04:55:39;13.93;;;12.35;;
68178;SDS011;69812;42.632;23.440;2023-06-22T04:58:06;14.40;;;12.90;;
68178;SDS011;69812;42.632;23.440;2023-06-22T05:00:32;14.20;;;12.80;;
68178;SDS011;69812;42.632;23.440;2023-06-22T05:03:01;13.52;;;12.13;;
68178;SDS011;69812;42.632;23.440;2023-06-22T05:05:28;15.02;;;13.32;;
68178;SDS011;69812;42.632;23.440;2023-06-22T05:10:24;14.38;;;12.68;;
68178;SDS011;69812;42.632;23.440;2023-06-22T05:12:54;19.02;;;14.38;;
68178;SDS011;69812;42.632;23.440;2023-06-22T05:15:20;16.77;;;13.82;;
68178;SDS011;69812;42.632;23.440;2023-06-22T05:17:51;17.83;;;12.82;;
68178;SDS011;69812;42.632;23.440;2023-06-22T05:20:17;16.02;;;13.02;;
68178;SDS011;69812;42.632;23.440;2023-06-22T05:22:43;18.33;;;13.75;;
68178;SDS011;69812;42.632;23.440;2023-06-22T05:25:14;17.23;;;11.68;;
68178;SDS011;69812;42.632;23.440;2023-06-22T05:27:39;14.88;;;12.02;;
68178;SDS011;69812;42.632;23.440;2023-06-22T05:32:55;13.25;;;11.75;;
68178;SDS011;69812;42.632;23.440;2023-06-22T05:35:20;16.55;;;12.40;;
68178;SDS011;69812;42.632;23.440;2023-06-22T05:37:45;14.15;;;11.60;;
68178;SDS011;69812;42.632;23.440;2023-06-22T05:40:11;13.02;;;10.88;;
68178;SDS011;69812;42.632;23.440;2023-06-22T05:45:02;13.18;;;11.57;;
68178;SDS011;69812;42.632;23.440;2023-06-22T05:49:53;15.53;;;11.47;;
68178;SDS011;69812;42.632;23.440;2023-06-22T05:52:19;14.38;;;12.07;;
68178;SDS011;69812;42.632;23.440;2023-06-22T05:54:44;12.88;;;11.48;;
68178;SDS011;69812;42.632;23.440;2023-06-22T05:59:35;14.75;;;11.38;;
68178;SDS011;69812;42.632;23.440;2023-06-22T06:04:25;12.43;;;10.47;;
68178;SDS011;69812;42.632;23.440;2023-06-22T06:06:51;13.90;;;12.38;;
68178;SDS011;69812;42.632;23.440;2023-06-22T06:09:16;14.88;;;13.48;;
68178;SDS011;69812;42.632;23.440;2023-06-22T06:11:42;14.65;;;13.15;;
68178;SDS011;69812;42.632;23.440;2023-06-22T06:14:07;15.45;;;12.85;;
68178;SDS011;69812;42.632;23.440;2023-06-22T06:16:35;18.40;;;13.38;;
68178;SDS011;69812;42.632;23.440;2023-06-22T06:19:00;14.82;;;13.32;;
68178;SDS011;69812;42.632;23.440;2023-06-22T06:21:26;14.82;;;13.43;;
68178;SDS011;69812;42.632;23.440;2023-06-22T06:23:51;15.25;;;13.75;;
68178;SDS011;69812;42.632;23.440;2023-06-22T06:26:18;14.35;;;13.02;;
68178;SDS011;69812;42.632;23.440;2023-06-22T06:28:48;14.40;;;12.98;;
68178;SDS011;69812;42.632;23.440;2023-06-22T06:31:13;14.60;;;13.10;;
68178;SDS011;69812;42.632;23.440;2023-06-22T06:33:42;14.07;;;12.70;;
68178;SDS011;69812;42.632;23.440;2023-06-22T06:36:07;11.75;;;10.65;;
68178;SDS011;69812;42.632;23.440;2023-06-22T06:38:33;13.55;;;12.35;;
68178;SDS011;69812;42.632;23.440;2023-06-22T06:40:58;13.20;;;12.10;;
68178;SDS011;69812;42.632;23.440;2023-06-22T06:43:24;15.15;;;13.90;;
68178;SDS011;69812;42.632;23.440;2023-06-22T06:45:50;14.48;;;13.10;;
68178;SDS011;69812;42.632;23.440;2023-06-22T06:48:16;14.40;;;13.02;;
68178;SDS011;69812;42.632;23.440;2023-06-22T06:50:42;14.88;;;13.50;;
68178;SDS011;69812;42.632;23.440;2023-06-22T06:53:10;14.50;;;13.25;;
68178;SDS011;69812;42.632;23.440;2023-06-22T06:55:36;16.00;;;14.45;;
68178;SDS011;69812;42.632;23.440;2023-06-22T06:58:01;15.15;;;13.88;;
68178;SDS011;69812;42.632;23.440;2023-06-22T07:00:29;15.65;;;14.02;;
68178;SDS011;69812;42.632;23.440;2023-06-22T07:02:54;13.88;;;12.57;;
68178;SDS011;69812;42.632;23.440;2023-06-22T07:05:20;13.63;;;11.73;;
68178;SDS011;69812;42.632;23.440;2023-06-22T07:07:48;14.88;;;13.60;;
68178;SDS011;69812;42.632;23.440;2023-06-22T07:10:16;14.70;;;13.18;;
68178;SDS011;69812;42.632;23.440;2023-06-22T07:12:41;14.63;;;13.23;;
68178;SDS011;69812;42.632;23.440;2023-06-22T07:15:07;14.93;;;13.50;;
68178;SDS011;69812;42.632;23.440;2023-06-22T07:17:34;18.23;;;13.02;;
68178;SDS011;69812;42.632;23.440;2023-06-22T07:20:00;14.65;;;12.77;;
68178;SDS011;69812;42.632;23.440;2023-06-22T07:22:26;13.82;;;12.40;;
68178;SDS011;69812;42.632;23.440;2023-06-22T07:24:51;13.52;;;12.10;;
68178;SDS011;69812;42.632;23.440;2023-06-22T07:27:17;13.73;;;12.63;;
68178;SDS011;69812;42.632;23.440;2023-06-22T07:29:44;14.38;;;12.70;;
68178;SDS011;69812;42.632;23.440;2023-06-22T07:32:10;14.15;;;12.80;;
68178;SDS011;69812;42.632;23.440;2023-06-22T07:34:35;13.90;;;12.60;;
68178;SDS011;69812;42.632;23.440;2023-06-22T07:37:01;14.70;;;13.40;;
68178;SDS011;69812;42.632;23.440;2023-06-22T07:39:26;15.07;;;13.85;;
68178;SDS011;69812;42.632;23.440;2023-06-22T07:41:53;14.05;;;12.80;;
68178;SDS011;69812;42.632;23.440;2023-06-22T07:44:18;15.40;;;13.85;;
68178;SDS011;69812;42.632;23.440;2023-06-22T07:46:44;16.17;;;14.80;;
68178;SDS011;69812;42.632;23.440;2023-06-22T07:49:09;15.10;;;13.75;;
68178;SDS011;69812;42.632;23.440;2023-06-22T07:51:34;16.80;;;15.20;;
68178;SDS011;69812;42.632;23.440;2023-06-22T07:54:00;14.75;;;13.43;;
68178;SDS011;69812;42.632;23.440;2023-06-22T07:56:28;16.08;;;14.45;;
68178;SDS011;69812;42.632;23.440;2023-06-22T07:58:53;20.55;;;16.05;;
68178;SDS011;69812;42.632;23.440;2023-06-22T08:01:18;16.90;;;14.55;;
68178;SDS011;69812;42.632;23.440;2023-06-22T08:03:46;17.13;;;14.80;;
68178;SDS011;69812;42.632;23.440;2023-06-22T08:06:13;17.33;;;15.60;;
68178;SDS011;69812;42.632;23.440;2023-06-22T08:08:38;15.68;;;14.20;;
68178;SDS011;69812;42.632;23.440;2023-06-22T08:11:04;15.20;;;13.80;;
68178;SDS011;69812;42.632;23.440;2023-06-22T08:13:33;16.15;;;14.40;;
68178;SDS011;69812;42.632;23.440;2023-06-22T08:15:58;15.77;;;14.15;;
68178;SDS011;69812;42.632;23.440;2023-06-22T08:18:24;15.32;;;13.88;;
68178;SDS011;69812;42.632;23.440;2023-06-22T08:20:49;12.57;;;11.30;;
68178;SDS011;69812;42.632;23.440;2023-06-22T08:23:17;16.13;;;14.40;;
68178;SDS011;69812;42.632;23.440;2023-06-22T08:25:43;16.92;;;13.88;;
68178;SDS011;69812;42.632;23.440;2023-06-22T08:28:08;14.52;;;12.75;;
68178;SDS011;69812;42.632;23.440;2023-06-22T08:30:34;15.50;;;12.85;;
68178;SDS011;69812;42.632;23.440;2023-06-22T08:33:02;13.45;;;12.10;;
68178;SDS011;69812;42.632;23.440;2023-06-22T08:35:27;12.63;;;11.30;;
68178;SDS011;69812;42.632;23.440;2023-06-22T08:37:54;11.85;;;10.75;;
68178;SDS011;69812;42.632;23.440;2023-06-22T08:40:20;15.13;;;12.25;;
68178;SDS011;69812;42.632;23.440;2023-06-22T08:42:46;14.75;;;11.73;;
68178;SDS011;69812;42.632;23.440;2023-06-22T08:45:12;17.35;;;12.27;;
68178;SDS011;69812;42.632;23.440;2023-06-22T08:47:39;17.90;;;13.00;;
68178;SDS011;69812;42.632;23.440;2023-06-22T08:50:07;12.38;;;11.07;;
68178;SDS011;69812;42.632;23.440;2023-06-22T08:52:36;13.10;;;11.82;;
68178;SDS011;69812;42.632;23.440;2023-06-22T08:55:05;12.32;;;11.23;;
68178;SDS011;69812;42.632;23.440;2023-06-22T08:57:31;12.35;;;11.18;;
68178;SDS011;69812;42.632;23.440;2023-06-22T08:59:57;11.85;;;10.65;;
68178;SDS011;69812;42.632;23.440;2023-06-22T09:02:24;12.68;;;10.98;;
68178;SDS011;69812;42.632;23.440;2023-06-22T09:04:58;13.02;;;11.57;;
68178;SDS011;69812;42.632;23.440;2023-06-22T09:07:24;12.25;;;10.95;;
68178;SDS011;69812;42.632;23.440;2023-06-22T09:09:50;12.35;;;10.75;;
68178;SDS011;69812;42.632;23.440;2023-06-22T09:12:15;12.07;;;10.85;;
68178;SDS011;69812;42.632;23.440;2023-06-22T09:14:41;13.27;;;10.38;;
68178;SDS011;69812;42.632;23.440;2023-06-22T09:19:32;12.30;;;10.90;;
68178;SDS011;69812;42.632;23.440;2023-06-22T09:21:58;14.35;;;11.25;;
68178;SDS011;69812;42.632;23.440;2023-06-22T09:24:23;16.05;;;11.90;;
68178;SDS011;69812;42.632;23.440;2023-06-22T09:26:49;12.38;;;10.77;;
68178;SDS011;69812;42.632;23.440;2023-06-22T09:29:15;14.73;;;10.45;;
68178;SDS011;69812;42.632;23.440;2023-06-22T09:34:06;16.30;;;11.33;;
68178;SDS011;69812;42.632;23.440;2023-06-22T09:36:31;12.32;;;11.10;;
68178;SDS011;69812;42.632;23.440;2023-06-22T09:38:56;12.10;;;10.80;;
68178;SDS011;69812;42.632;23.440;2023-06-22T09:41:23;13.57;;;10.82;;
68178;SDS011;69812;42.632;23.440;2023-06-22T09:46:15;11.90;;;9.82;;
68178;SDS011;69812;42.632;23.440;2023-06-22T09:51:08;13.43;;;10.50;;
68178;SDS011;69812;42.632;23.440;2023-06-22T09:53:36;13.07;;;10.18;;
68178;SDS011;69812;42.632;23.440;2023-06-22T09:56:02;11.70;;;10.50;;
68178;SDS011;69812;42.632;23.440;2023-06-22T09:58:28;12.70;;;10.93;;
68178;SDS011;69812;42.632;23.440;2023-06-22T10:00:56;13.10;;;11.15;;
68178;SDS011;69812;42.632;23.440;2023-06-22T10:03:21;14.02;;;10.88;;
68178;SDS011;69812;42.632;23.440;2023-06-22T10:05:47;15.13;;;11.13;;
68178;SDS011;69812;42.632;23.440;2023-06-22T10:08:13;13.45;;;11.82;;
68178;SDS011;69812;42.632;23.440;2023-06-22T10:10:38;14.80;;;10.98;;
68178;SDS011;69812;42.632;23.440;2023-06-22T10:13:07;14.23;;;11.18;;
68178;SDS011;69812;42.632;23.440;2023-06-22T10:15:35;11.68;;;10.45;;
68178;SDS011;69812;42.632;23.440;2023-06-22T10:18:03;13.05;;;9.68;;
68178;SDS011;69812;42.632;23.440;2023-06-22T10:20:28;11.80;;;10.60;;
68178;SDS011;69812;42.632;23.440;2023-06-22T10:22:54;12.05;;;10.82;;
68178;SDS011;69812;42.632;23.440;2023-06-22T10:25:22;11.50;;;10.27;;
68178;SDS011;69812;42.632;23.440;2023-06-22T10:27:48;11.98;;;9.95;;
68178;SDS011;69812;42.632;23.440;2023-06-22T10:30:16;11.65;;;10.10;;
68178;SDS011;69812;42.632;23.440;2023-06-22T10:32:42;14.52;;;10.95;;
68178;SDS011;69812;42.632;23.440;2023-06-22T10:35:08;12.32;;;10.18;;
68178;SDS011;69812;42.632;23.440;2023-06-22T10:37:35;11.48;;;10.38;;
68178;SDS011;69812;42.632;23.440;2023-06-22T10:42:26;11.98;;;10.45;;
68178;SDS011;69812;42.632;23.440;2023-06-22T10:44:51;12.13;;;10.75;;
68178;SDS011;69812;42.632;23.440;2023-06-22T10:47:17;12.32;;;10.88;;
68178;SDS011;69812;42.632;23.440;2023-06-22T10:49:45;12.27;;;10.98;;
68178;SDS011;69812;42.632;23.440;2023-06-22T10:52:10;12.30;;;10.57;;
68178;SDS011;69812;42.632;23.440;2023-06-22T10:54:36;12.27;;;10.15;;
68178;SDS011;69812;42.632;23.440;2023-06-22T10:57:05;10.93;;;9.35;;
68178;SDS011;69812;42.632;23.440;2023-06-22T10:59:30;12.48;;;9.45;;
68178;SDS011;69812;42.632;23.440;2023-06-22T11:01:56;11.82;;;9.23;;
68178;SDS011;69812;42.632;23.440;2023-06-22T11:04:24;11.25;;;9.48;;
68178;SDS011;69812;42.632;23.440;2023-06-22T11:06:52;11.38;;;10.15;;
68178;SDS011;69812;42.632;23.440;2023-06-22T11:09:18;11.38;;;9.95;;
68178;SDS011;69812;42.632;23.440;2023-06-22T11:11:49;12.50;;;9.95;;
68178;SDS011;69812;42.632;23.440;2023-06-22T11:14:21;11.20;;;9.30;;
68178;SDS011;69812;42.632;23.440;2023-06-22T11:16:49;12.07;;;10.07;;
68178;SDS011;69812;42.632;23.440;2023-06-22T11:21:40;10.43;;;9.30;;
68178;SDS011;69812;42.632;23.440;2023-06-22T11:26:30;10.88;;;9.60;;
68178;SDS011;69812;42.632;23.440;2023-06-22T11:29:02;11.95;;;10.75;;
68178;SDS011;69812;42.632;23.440;2023-06-22T11:31:31;12.13;;;10.50;;
68178;SDS011;69812;42.632;23.440;2023-06-22T11:33:57;14.10;;;10.43;;
68178;SDS011;69812;42.632;23.440;2023-06-22T11:38:51;12.43;;;11.00;;
68178;SDS011;69812;42.632;23.440;2023-06-22T11:43:44;11.82;;;10.63;;
68178;SDS011;69812;42.632;23.440;2023-06-22T11:46:11;12.73;;;11.23;;
68178;SDS011;69812;42.632;23.440;2023-06-22T11:51:02;11.95;;;10.68;;
68178;SDS011;69812;42.632;23.440;2023-06-22T11:53:31;12.32;;;10.38;;
68178;SDS011;69812;42.632;23.440;2023-06-22T11:58:22;11.80;;;10.70;;
68178;SDS011;69812;42.632;23.440;2023-06-22T12:03:13;11.32;;;10.23;;
68178;SDS011;69812;42.632;23.440;2023-06-22T12:05:39;12.05;;;10.43;;
68178;SDS011;69812;42.632;23.440;2023-06-22T12:10:33;15.85;;;10.90;;
68178;SDS011;69812;42.632;23.440;2023-06-22T12:13:01;15.43;;;10.82;;
68178;SDS011;69812;42.632;23.440;2023-06-22T12:15:29;17.13;;;12.00;;
68178;SDS011;69812;42.632;23.440;2023-06-22T12:17:54;18.70;;;10.98;;
68178;SDS011;69812;42.632;23.440;2023-06-22T12:20:20;22.63;;;14.52;;
68178;SDS011;69812;42.632;23.440;2023-06-22T12:22:48;19.55;;;13.02;;
68178;SDS011;69812;42.632;23.440;2023-06-22T12:25:19;23.30;;;13.68;;
68178;SDS011;69812;42.632;23.440;2023-06-22T12:27:45;31.63;;;14.57;;
68178;SDS011;69812;42.632;23.440;2023-06-22T12:30:10;21.20;;;14.75;;
68178;SDS011;69812;42.632;23.440;2023-06-22T12:32:36;28.10;;;15.45;;
68178;SDS011;69812;42.632;23.440;2023-06-22T12:35:01;35.70;;;17.60;;
68178;SDS011;69812;42.632;23.440;2023-06-22T12:37:26;33.10;;;18.83;;
68178;SDS011;69812;42.632;23.440;2023-06-22T12:39:53;28.88;;;16.02;;
68178;SDS011;69812;42.632;23.440;2023-06-22T12:42:19;26.55;;;14.35;;
68178;SDS011;69812;42.632;23.440;2023-06-22T12:47:11;24.80;;;13.95;;
68178;SDS011;69812;42.632;23.440;2023-06-22T12:49:36;23.48;;;14.85;;
68178;SDS011;69812;42.632;23.440;2023-06-22T12:52:02;21.25;;;13.93;;
68178;SDS011;69812;42.632;23.440;2023-06-22T12:54:28;27.00;;;15.18;;
68178;SDS011;69812;42.632;23.440;2023-06-22T12:56:57;22.70;;;13.55;;
68178;SDS011;69812;42.632;23.440;2023-06-22T12:59:23;18.92;;;11.48;;
68178;SDS011;69812;42.632;23.440;2023-06-22T13:01:48;19.73;;;11.55;;
68178;SDS011;69812;42.632;23.440;2023-06-22T13:04:13;19.15;;;12.45;;
68178;SDS011;69812;42.632;23.440;2023-06-22T13:06:43;22.60;;;13.90;;
68178;SDS011;69812;42.632;23.440;2023-06-22T13:09:13;26.42;;;13.73;;
68178;SDS011;69812;42.632;23.440;2023-06-22T13:11:41;24.42;;;14.98;;
68178;SDS011;69812;42.632;23.440;2023-06-22T13:14:08;21.50;;;14.35;;
68178;SDS011;69812;42.632;23.440;2023-06-22T13:16:33;22.40;;;14.68;;
68178;SDS011;69812;42.632;23.440;2023-06-22T13:18:58;23.88;;;15.40;;
68178;SDS011;69812;42.632;23.440;2023-06-22T13:21:24;22.50;;;14.38;;
68178;SDS011;69812;42.632;23.440;2023-06-22T13:23:49;23.38;;;13.50;;
68178;SDS011;69812;42.632;23.440;2023-06-22T13:26:15;24.35;;;15.20;;
68178;SDS011;69812;42.632;23.440;2023-06-22T13:28:40;21.17;;;14.50;;
68178;SDS011;69812;42.632;23.440;2023-06-22T13:31:05;25.70;;;14.88;;
68178;SDS011;69812;42.632;23.440;2023-06-22T13:33:31;20.13;;;13.60;;
68178;SDS011;69812;42.632;23.440;2023-06-22T13:35:56;17.30;;;12.45;;
68178;SDS011;69812;42.632;23.440;2023-06-22T13:38:25;18.33;;;11.75;;
68178;SDS011;69812;42.632;23.440;2023-06-22T13:40:50;24.00;;;13.07;;
68178;SDS011;69812;42.632;23.440;2023-06-22T13:43:16;22.80;;;12.65;;
68178;SDS011;69812;42.632;23.440;2023-06-22T13:45:44;20.73;;;12.20;;
68178;SDS011;69812;42.632;23.440;2023-06-22T13:48:12;20.20;;;13.35;;
68178;SDS011;69812;42.632;23.440;2023-06-22T13:50:48;20.75;;;13.00;;
68178;SDS011;69812;42.632;23.440;2023-06-22T13:53:14;20.95;;;12.90;;
68178;SDS011;69812;42.632;23.440;2023-06-22T13:55:39;19.85;;;13.65;;
68178;SDS011;69812;42.632;23.440;2023-06-22T13:58:05;20.65;;;13.88;;
68178;SDS011;69812;42.632;23.440;2023-06-22T14:00:30;23.25;;;14.45;;
68178;SDS011;69812;42.632;23.440;2023-06-22T14:02:57;19.23;;;14.05;;
68178;SDS011;69812;42.632;23.440;2023-06-22T14:05:25;20.40;;;14.45;;
68178;SDS011;69812;42.632;23.440;2023-06-22T14:07:56;20.52;;;14.32;;
68178;SDS011;69812;42.632;23.440;2023-06-22T14:10:22;19.88;;;14.77;;
68178;SDS011;69812;42.632;23.440;2023-06-22T14:12:50;21.02;;;14.00;;
68178;SDS011;69812;42.632;23.440;2023-06-22T14:15:15;22.67;;;14.63;;
68178;SDS011;69812;42.632;23.440;2023-06-22T14:17:46;19.67;;;13.90;;
68178;SDS011;69812;42.632;23.440;2023-06-22T14:20:11;21.48;;;13.88;;
68178;SDS011;69812;42.632;23.440;2023-06-22T14:22:37;19.63;;;13.18;;
68178;SDS011;69812;42.632;23.440;2023-06-22T14:25:02;20.58;;;14.48;;
68178;SDS011;69812;42.632;23.440;2023-06-22T14:27:28;22.30;;;14.13;;
68178;SDS011;69812;42.632;23.440;2023-06-22T14:29:57;21.67;;;14.13;;
68178;SDS011;69812;42.632;23.440;2023-06-22T14:32:23;22.25;;;14.38;;
68178;SDS011;69812;42.632;23.440;2023-06-22T14:34:49;21.60;;;13.13;;
68178;SDS011;69812;42.632;23.440;2023-06-22T14:37:15;22.08;;;14.70;;
68178;SDS011;69812;42.632;23.440;2023-06-22T14:39:40;22.70;;;14.68;;
68178;SDS011;69812;42.632;23.440;2023-06-22T14:42:10;23.30;;;15.63;;
68178;SDS011;69812;42.632;23.440;2023-06-22T14:44:35;21.60;;;14.98;;
68178;SDS011;69812;42.632;23.440;2023-06-22T14:47:04;22.20;;;14.80;;
68178;SDS011;69812;42.632;23.440;2023-06-22T14:49:29;18.35;;;12.93;;
68178;SDS011;69812;42.632;23.440;2023-06-22T14:51:57;19.17;;;13.40;;
68178;SDS011;69812;42.632;23.440;2023-06-22T14:54:22;18.98;;;13.43;;
68178;SDS011;69812;42.632;23.440;2023-06-22T14:56:48;17.85;;;13.15;;
68178;SDS011;69812;42.632;23.440;2023-06-22T14:59:13;20.02;;;11.88;;
68178;SDS011;69812;42.632;23.440;2023-06-22T15:01:39;16.33;;;11.95;;
68178;SDS011;69812;42.632;23.440;2023-06-22T15:04:04;18.02;;;13.73;;
68178;SDS011;69812;42.632;23.440;2023-06-22T15:06:29;20.17;;;14.23;;
68178;SDS011;69812;42.632;23.440;2023-06-22T15:08:55;20.23;;;14.63;;
68178;SDS011;69812;42.632;23.440;2023-06-22T15:11:20;17.13;;;12.82;;
68178;SDS011;69812;42.632;23.440;2023-06-22T15:13:46;18.48;;;13.48;;